
Distance (Route):
Temperature : 30.5°C
Humidity : 28.2%
Pressure : 0hPa| Receiver | Date | Latitude | Longitude | Direction | Speed | Altitude | Climb | Temperature | Humidity | Pressure | Voltage | Killtimer | Uptime | BKT | XDATA |
|---|---|---|---|---|---|---|---|---|---|---|---|---|---|---|---|
| LZ4TU-5 | 2026-09-05 18:55:14 | 44.13411 | 23.47964 | 132° | 37km/h | 583m | -14.3m/s | 30.5°C | 28.2% | 0hPa | 0V | 00:00:00 | 00:00:00 | 00:00:00 | |
| LZ4TU-5 | 2026-09-05 18:55:10 | 44.13436 | 23.47926 | 131° | 37km/h | 637m | -14.6m/s | 30.1°C | 28.5% | 0hPa | 0V | 00:00:00 | 00:00:00 | 00:00:00 | |
| LZ4TU-5 | 2026-09-05 18:55:05 | 44.13465 | 23.47876 | 129° | 37km/h | 710m | -14.6m/s | 29.5°C | 28.7% | 0hPa | 0V | 00:00:00 | 00:00:00 | 00:00:00 | |
| LZ4TU-5 | 2026-09-05 18:55:01 | 44.13487 | 23.47835 | 127° | 37km/h | 770m | -14.4m/s | 29.0°C | 28.9% | 0hPa | 0V | 00:00:00 | 00:00:00 | 00:00:00 | |
| LZ4TU-5 | 2026-09-05 18:54:56 | 44.13515 | 23.47783 | 126° | 37km/h | 841m | -14.1m/s | 28.4°C | 29.3% | 0hPa | 0V | 00:00:00 | 00:00:00 | 00:00:00 | |
| LZ4TU-5 | 2026-09-05 18:54:51 | 44.13543 | 23.47729 | 126° | 38km/h | 906m | -14.3m/s | 27.7°C | 30.0% | 0hPa | 0V | 00:00:00 | 00:00:00 | 00:00:00 | |
| LZ4TU-5 | 2026-09-05 18:54:46 | 44.13569 | 23.47673 | 123° | 38km/h | 973m | -14.4m/s | 27.1°C | 30.6% | 0hPa | 0V | 00:00:00 | 00:00:00 | 00:00:00 | |
| LZ4TU-5 | 2026-09-05 18:54:41 | 44.13593 | 23.47617 | 120° | 37km/h | 1048m | -15.0m/s | 26.5°C | 31.1% | 0hPa | 0V | 00:00:00 | 00:00:00 | 00:00:00 | |
| LZ4TU-5 | 2026-09-05 18:54:37 | 44.13610 | 23.47573 | 116° | 37km/h | 1110m | -14.9m/s | 26.0°C | 31.5% | 0hPa | 0V | 00:00:00 | 00:00:00 | 00:00:00 | |
| LZ4TU-5 | 2026-09-05 18:54:33 | 44.13625 | 23.47527 | 114° | 35km/h | 1172m | -14.7m/s | 25.5°C | 31.7% | 0hPa | 0V | 00:00:00 | 00:00:00 | 00:00:00 | |
| LZ4TU-5 | 2026-09-05 18:54:29 | 44.13636 | 23.47480 | 113° | 35km/h | 1233m | -14.9m/s | 25.0°C | 32.2% | 0hPa | 0V | 00:00:00 | 00:00:00 | 00:00:00 | |
| LZ4TU-5 | 2026-09-05 18:54:24 | 44.13652 | 23.47423 | 109° | 35km/h | 1310m | -14.7m/s | 24.3°C | 32.9% | 0hPa | 0V | 00:00:00 | 00:00:00 | 00:00:00 | |
| LZ4TU-5 | 2026-09-05 18:54:20 | 44.13665 | 23.47380 | 106° | 33km/h | 1368m | -14.8m/s | 23.8°C | 33.4% | 0hPa | 0V | 00:00:00 | 00:00:00 | 00:00:00 | |
| LZ4TU-5 | 2026-09-05 18:54:15 | 44.13675 | 23.47322 | 105° | 33km/h | 1441m | -14.9m/s | 23.1°C | 34.0% | 0hPa | 0V | 00:00:00 | 00:00:00 | 00:00:00 | |
| LZ4TU-5 | 2026-09-05 18:54:10 | 44.13687 | 23.47267 | 105° | 33km/h | 1518m | -14.9m/s | 22.4°C | 34.6% | 0hPa | 0V | 00:00:00 | 00:00:00 | 00:00:00 | |
| LZ4TU-5 | 2026-09-05 18:54:05 | 44.13697 | 23.47212 | 104° | 33km/h | 1591m | -15.1m/s | 21.7°C | 35.6% | 0hPa | 0V | 00:00:00 | 00:00:00 | 00:00:00 | |
| LZ4TU-5 | 2026-09-05 18:54:00 | 44.13706 | 23.47155 | 103° | 33km/h | 1665m | -15.0m/s | 21.0°C | 36.7% | 0hPa | 0V | 00:00:00 | 00:00:00 | 00:00:00 | |
| LZ4TU-5 | 2026-09-05 18:53:55 | 44.13714 | 23.47096 | 103° | 35km/h | 1739m | -15.1m/s | 20.3°C | 37.7% | 0hPa | 0V | 00:00:00 | 00:00:00 | 00:00:00 | |
| LZ4TU-5 | 2026-09-05 18:53:50 | 44.13721 | 23.47037 | 102° | 33km/h | 1813m | -15.2m/s | 19.5°C | 38.8% | 0hPa | 0V | 00:00:00 | 00:00:00 | 00:00:00 | |
| LZ4TU-5 | 2026-09-05 18:53:45 | 44.13729 | 23.46980 | 101° | 33km/h | 1892m | -15.2m/s | 18.8°C | 39.9% | 0hPa | 0V | 00:00:00 | 00:00:00 | 00:00:00 | |
| LZ4TU-5 | 2026-09-05 18:53:41 | 44.13736 | 23.46933 | 99° | 35km/h | 1955m | -15.4m/s | 18.2°C | 40.7% | 0hPa | 0V | 00:00:00 | 00:00:00 | 00:00:00 | |
| LZ4TU-5 | 2026-09-05 18:53:36 | 44.13743 | 23.46874 | 97° | 33km/h | 2025m | -15.1m/s | 17.5°C | 41.7% | 0hPa | 0V | 00:00:00 | 00:00:00 | 00:00:00 | |
| LZ4TU-5 | 2026-09-05 18:53:31 | 44.13746 | 23.46815 | 97° | 33km/h | 2100m | -14.9m/s | 16.8°C | 42.6% | 0hPa | 0V | 00:00:00 | 00:00:00 | 00:00:00 | |
| LZ4TU-5 | 2026-09-05 18:53:27 | 44.13750 | 23.46771 | 96° | 33km/h | 2159m | -14.9m/s | 16.3°C | 43.6% | 0hPa | 0V | 00:00:00 | 00:00:00 | 00:00:00 | |
| LZ4TU-5 | 2026-09-05 18:53:23 | 44.13754 | 23.46726 | 96° | 33km/h | 2212m | -16.0m/s | 15.7°C | 44.4% | 0hPa | 0V | 00:00:00 | 00:00:00 | 00:00:00 | |
| LZ4TU-5 | 2026-09-05 18:53:18 | 44.13756 | 23.46669 | 95° | 31km/h | 2295m | -15.6m/s | 15.0°C | 45.6% | 0hPa | 0V | 00:00:00 | 00:00:00 | 00:00:00 | |
| LZ4TU-5 | 2026-09-05 18:53:14 | 44.13757 | 23.46625 | 94° | 31km/h | 2362m | -15.7m/s | 14.4°C | 46.4% | 0hPa | 0V | 00:00:00 | 00:00:00 | 00:00:00 | |
| LZ4TU-5 | 2026-09-05 18:53:09 | 44.13758 | 23.46571 | 92° | 31km/h | 2443m | -15.4m/s | 13.7°C | 46.3% | 0hPa | 0V | 00:00:00 | 00:00:00 | 00:00:00 | |
| LZ4TU-5 | 2026-09-05 18:53:05 | 44.13759 | 23.46525 | 91° | 35km/h | 2507m | -15.5m/s | 13.2°C | 44.8% | 0hPa | 0V | 00:00:00 | 00:00:00 | 00:00:00 | |
| LZ4TU-5 | 2026-09-05 18:53:00 | 44.13760 | 23.46464 | 90° | 37km/h | 2583m | -16.1m/s | 12.5°C | 48.3% | 0hPa | 0V | 00:00:00 | 00:00:00 | 00:00:00 | |
| LZ4TU-5 | 2026-09-05 18:52:55 | 44.13760 | 23.46397 | 89° | 40km/h | 2661m | -16.2m/s | 11.9°C | 52.5% | 0hPa | 0V | 00:00:00 | 00:00:00 | 00:00:00 | |
| LZ4TU-5 | 2026-09-05 18:52:50 | 44.13759 | 23.46327 | 87° | 40km/h | 2740m | -15.8m/s | 11.3°C | 55.4% | 0hPa | 0V | 00:00:00 | 00:00:00 | 00:00:00 | |
| LZ4TU-5 | 2026-09-05 18:52:46 | 44.13755 | 23.46269 | 88° | 42km/h | 2791m | -16.4m/s | 10.7°C | 56.4% | 0hPa | 0V | 00:00:00 | 00:00:00 | 00:00:00 | |
| LZ4TU-5 | 2026-09-05 18:52:41 | 44.13754 | 23.46194 | 93° | 44km/h | 2873m | -15.7m/s | 10.1°C | 53.4% | 0hPa | 0V | 00:00:00 | 00:00:00 | 00:00:00 | |
| LZ4TU-5 | 2026-09-05 18:52:37 | 44.13758 | 23.46127 | 100° | 51km/h | 2939m | -15.6m/s | 9.9°C | 44.8% | 0hPa | 0V | 00:00:00 | 00:00:00 | 00:00:00 | |
| LZ4TU-5 | 2026-09-05 18:52:32 | 44.13773 | 23.46037 | 107° | 53km/h | 3020m | -15.3m/s | 9.9°C | 37.4% | 0hPa | 0V | 00:00:00 | 00:00:00 | 00:00:00 | |
| LZ4TU-5 | 2026-09-05 18:52:28 | 44.13788 | 23.45964 | 108° | 53km/h | 3082m | -15.5m/s | 9.5°C | 37.3% | 0hPa | 0V | 00:00:00 | 00:00:00 | 00:00:00 | |
| LZ4TU-5 | 2026-09-05 18:52:24 | 44.13806 | 23.45894 | 111° | 53km/h | 3144m | -15.1m/s | 8.9°C | 37.5% | 0hPa | 0V | 00:00:00 | 00:00:00 | 00:00:00 | |
| LZ4TU-5 | 2026-09-05 18:52:19 | 44.13830 | 23.45810 | 113° | 49km/h | 3213m | -14.7m/s | 8.3°C | 37.6% | 0hPa | 0V | 00:00:00 | 00:00:00 | 00:00:00 | |
| LZ4TU-5 | 2026-09-05 18:52:15 | 44.13849 | 23.45746 | 115° | 47km/h | 3259m | -15.2m/s | 8.0°C | 36.5% | 0hPa | 0V | 00:00:00 | 00:00:00 | 00:00:00 | |
| LZ4TU-5 | 2026-09-05 18:52:11 | 44.13869 | 23.45687 | 115° | 46km/h | 3324m | -15.6m/s | 7.6°C | 35.6% | 0hPa | 0V | 00:00:00 | 00:00:00 | 00:00:00 | |
| LZ4TU-5 | 2026-09-05 18:52:06 | 44.13891 | 23.45614 | 114° | 44km/h | 3406m | -15.5m/s | 7.0°C | 35.9% | 0hPa | 0V | 00:00:00 | 00:00:00 | 00:00:00 | |
| LZ4TU-5 | 2026-09-05 18:52:01 | 44.13913 | 23.45540 | 113° | 46km/h | 3489m | -15.7m/s | 6.4°C | 35.7% | 0hPa | 0V | 00:00:00 | 00:00:00 | 00:00:00 | |
| LZ4TU-5 | 2026-09-05 18:51:56 | 44.13936 | 23.45464 | 114° | 47km/h | 3571m | -15.4m/s | 5.8°C | 34.7% | 0hPa | 0V | 00:00:00 | 00:00:00 | 00:00:00 | |
| LZ4TU-5 | 2026-09-05 18:51:52 | 44.13954 | 23.45400 | 116° | 49km/h | 3635m | -15.7m/s | 5.2°C | 34.9% | 0hPa | 0V | 00:00:00 | 00:00:00 | 00:00:00 | |
| LZ4TU-5 | 2026-09-05 18:51:48 | 44.13973 | 23.45335 | 115° | 51km/h | 3701m | -15.9m/s | 4.7°C | 33.8% | 0hPa | 0V | 00:00:00 | 00:00:00 | 00:00:00 | |
| LZ4TU-5 | 2026-09-05 18:51:43 | 44.13997 | 23.45248 | 110° | 58km/h | 3782m | -15.8m/s | 4.9°C | 30.7% | 0hPa | 0V | 00:00:00 | 00:00:00 | 00:00:00 | |
| LZ4TU-5 | 2026-09-05 18:51:38 | 44.14026 | 23.45152 | 108° | 60km/h | 3862m | -16.0m/s | 5.1°C | 36.8% | 0hPa | 0V | 00:00:00 | 00:00:00 | 00:00:00 | |
| LZ4TU-5 | 2026-09-05 18:51:34 | 44.14042 | 23.45073 | 105° | 58km/h | 3927m | -15.9m/s | 4.6°C | 42.7% | 0hPa | 0V | 00:00:00 | 00:00:00 | 00:00:00 | |
| LZ4TU-5 | 2026-09-05 18:51:29 | 44.14059 | 23.44975 | 103° | 57km/h | 4003m | -16.3m/s | 3.9°C | 44.2% | 0hPa | 0V | 00:00:00 | 00:00:00 | 00:00:00 | |
| LZ4TU-5 | 2026-09-05 18:51:24 | 44.14073 | 23.44880 | 101° | 55km/h | 4088m | -16.1m/s | 3.1°C | 45.7% | 0hPa | 0V | 00:00:00 | 00:00:00 | 00:00:00 | |
| LZ4TU-5 | 2026-09-05 18:51:19 | 44.14083 | 23.44784 | 98° | 55km/h | 4171m | -16.0m/s | 2.4°C | 47.1% | 0hPa | 0V | 00:00:00 | 00:00:00 | 00:00:00 | |
| LZ4TU-5 | 2026-09-05 18:51:15 | 44.14088 | 23.44708 | 97° | 55km/h | 4236m | -16.2m/s | 1.8°C | 48.4% | 0hPa | 0V | 00:00:00 | 00:00:00 | 00:00:00 | |
| LZ4TU-5 | 2026-09-05 18:51:10 | 44.14096 | 23.44615 | 96° | 53km/h | 4309m | -16.0m/s | 1.1°C | 49.5% | 0hPa | 0V | 00:00:00 | 00:00:00 | 00:00:00 | |
| LZ4TU-5 | 2026-09-05 18:51:05 | 44.14101 | 23.44521 | 98° | 55km/h | 4392m | -16.2m/s | 0.4°C | 50.6% | 0hPa | 0V | 00:00:00 | 00:00:00 | 00:00:00 | |
| LZ4TU-5 | 2026-09-05 18:51:00 | 44.14111 | 23.44425 | 101° | 57km/h | 4474m | -16.3m/s | -0.4°C | 52.1% | 0hPa | 0V | 00:00:00 | 00:00:00 | 00:00:00 | |
| LZ4TU-5 | 2026-09-05 18:50:55 | 44.14126 | 23.44327 | 102° | 57km/h | 4542m | -16.5m/s | -1.1°C | 53.2% | 0hPa | 0V | 00:00:00 | 00:00:00 | 00:00:00 | |
| LZ4TU-5 | 2026-09-05 18:50:51 | 44.14138 | 23.44249 | 103° | 57km/h | 4611m | -16.1m/s | -1.7°C | 53.4% | 0hPa | 0V | 00:00:00 | 00:00:00 | 00:00:00 | |
| LZ4TU-5 | 2026-09-05 18:50:46 | 44.14152 | 23.44155 | 103° | 53km/h | 4698m | -16.4m/s | -2.3°C | 51.6% | 0hPa | 0V | 00:00:00 | 00:00:00 | 00:00:00 | |
| LZ4TU-5 | 2026-09-05 18:50:42 | 44.14163 | 23.44082 | 104° | 51km/h | 4767m | -16.2m/s | -2.8°C | 47.3% | 0hPa | 0V | 00:00:00 | 00:00:00 | 00:00:00 | |
| LZ4TU-5 | 2026-09-05 18:50:37 | 44.14179 | 23.43995 | 106° | 51km/h | 4852m | -16.2m/s | -3.3°C | 43.9% | 0hPa | 0V | 00:00:00 | 00:00:00 | 00:00:00 | |
| LZ4TU-5 | 2026-09-05 18:50:32 | 44.14197 | 23.43912 | 107° | 47km/h | 4937m | -16.6m/s | -3.9°C | 50.4% | 0hPa | 0V | 00:00:00 | 00:00:00 | 00:00:00 | |
| LZ4TU-5 | 2026-09-05 18:49:06 | 44.14443 | 23.42355 | 95° | 58km/h | 6361m | -16.6m/s | -13.3°C | 36.1% | 0hPa | 0V | 00:00:00 | 00:00:00 | 00:00:00 | |
| LZ4TU-5 | 2026-09-05 18:49:01 | 44.14449 | 23.42250 | 98° | 58km/h | 6436m | -16.7m/s | -13.8°C | 26.3% | 0hPa | 0V | 00:00:00 | 00:00:00 | 00:00:00 | |
| LZ4TU-5 | 2026-09-05 18:47:46 | 44.14563 | 23.40507 | 98° | 73km/h | 7739m | -17.9m/s | -22.3°C | 17.3% | 0hPa | 0V | 00:00:00 | 00:00:00 | 00:00:00 | |
| LZ4TU-5 | 2026-09-05 18:47:41 | 44.14575 | 23.40381 | 99° | 71km/h | 7834m | -18.0m/s | -22.9°C | 17.5% | 0hPa | 0V | 00:00:00 | 00:00:00 | 00:00:00 | |
| LZ4TU-5 | 2026-09-05 18:46:07 | 44.15031 | 23.38072 | 96° | 84km/h | 9563m | -19.2m/s | -35.5°C | 46.0% | 0hPa | 0V | 00:00:00 | 00:00:00 | 00:00:00 | |
| LZ4TU-5 | 2026-09-05 18:46:03 | 44.15040 | 23.37926 | 96° | 84km/h | 9664m | -19.4m/s | -35.9°C | 40.2% | 0hPa | 0V | 00:00:00 | 00:00:00 | 00:00:00 | |
| LZ4TU-5 | 2026-09-05 18:44:48 | 44.15340 | 23.35748 | 102° | 84km/h | 11198m | -23.0m/s | -49.4°C | 34.5% | 0hPa | 0V | 00:00:00 | 00:00:00 | 00:00:00 | |
| LZ4TU-5 | 2026-09-05 18:44:43 | 44.15358 | 23.35604 | 99° | 82km/h | 11318m | -23.2m/s | -50.2°C | 33.2% | 0hPa | 0V | 00:00:00 | 00:00:00 | 00:00:00 | |
| LZ4TU-5 | 2026-09-05 18:43:30 | 44.15543 | 23.33169 | 101° | 106km/h | 13209m | -28.4m/s | -61.7°C | 10.7% | 0hPa | 0V | 00:00:00 | 00:00:00 | 00:00:00 | |
| LZ4TU-5 | 2026-09-05 18:43:25 | 44.15570 | 23.32987 | 106° | 110km/h | 13348m | -28.5m/s | -61.8°C | 8.4% | 0hPa | 0V | 00:00:00 | 00:00:00 | 00:00:00 | |
| LZ4TU-5 | 2026-09-05 18:42:15 | 44.15757 | 23.30979 | 98° | 60km/h | 15507m | -34.0m/s | -60.1°C | 0.0% | 0hPa | 0V | 00:00:00 | 00:00:00 | 00:00:00 | |
| LZ4TU-5 | 2026-09-05 18:42:10 | 44.15768 | 23.30874 | 95° | 60km/h | 15681m | -34.2m/s | -60.5°C | 0.0% | 0hPa | 0V | 00:00:00 | 00:00:00 | 00:00:00 | |
| LZ4TU-5 | 2026-09-05 18:40:58 | 44.15667 | 23.29495 | 91° | 46km/h | 18354m | -39.6m/s | -59.2°C | 0.0% | 0hPa | 0V | 00:00:00 | 00:00:00 | 00:00:00 | |
| LZ4TU-5 | 2026-09-05 18:40:53 | 44.15668 | 23.29419 | 94° | 44km/h | 18558m | -40.8m/s | -58.3°C | 0% | 0hPa | 0V | 00:00:00 | 00:00:00 | 00:00:00 | |
| LZ4TU-5 | 2026-09-05 18:39:41 | 44.15783 | 23.28888 | 76° | 18km/h | 21291m | -43.3m/s | -56.8°C | 0.0% | 0hPa | 0V | 00:00:00 | 00:00:00 | 00:00:00 | |
| LZ4TU-5 | 2026-09-05 18:39:36 | 44.15780 | 23.28856 | 99° | 16km/h | 21508m | -42.0m/s | -55.6°C | 0.0% | 0hPa | 0V | 00:00:00 | 00:00:00 | 00:00:00 | |
| LZ4TU-5 | 2026-09-05 18:39:31 | 44.15781 | 23.28843 | 332° | 4km/h | 21715m | -39.6m/s | -53.8°C | 0.0% | 0hPa | 0V | 00:00:00 | 00:00:00 | 00:00:00 | |
| LZ4TU-5 | 2026-09-05 18:38:18 | 44.17015 | 23.27523 | 328° | 91km/h | 29605m | 5.3m/s | -51.1°C | 0.0% | 0hPa | 0V | 00:00:00 | 00:00:00 | 00:00:00 | |
| LZ4TU-5 | 2026-09-05 18:38:13 | 44.16939 | 23.27597 | 333° | 88km/h | 29592m | 5.6m/s | -51.4°C | 0.0% | 0hPa | 0V | 00:00:00 | 00:00:00 | 00:00:00 | |
| OM5KV | 2026-09-05 18:37:04 | 44.15890 | 23.28625 | 336° | 27km/h | 29194m | 7.0m/s | -44.8°C | 0.0% | 0hPa | 0V | 00:00:00 | 00:00:00 | 00:00:00 | |
| OM5KV | 2026-09-05 18:36:58 | 44.15850 | 23.28650 | 328° | 13km/h | 29143m | 6.8m/s | -45.3°C | 0.0% | 0hPa | 0V | 00:00:00 | 00:00:00 | 00:00:00 | |
| LZ4TU-5 | 2026-09-05 18:36:55 | 44.15842 | 23.28658 | 328° | 11km/h | 29120m | 6.9m/s | -45.3°C | 0.0% | 0hPa | 0V | 00:00:00 | 00:00:00 | 00:00:00 | |
| OM5KV | 2026-09-05 18:36:52 | 44.15838 | 23.28664 | 94° | 4km/h | 29095m | 6.5m/s | -45.2°C | 0.0% | 0hPa | 0V | 00:00:00 | 00:00:00 | 00:00:00 | |
| LZ4TU-5 | 2026-09-05 18:36:50 | 44.15838 | 23.28664 | 171° | 15km/h | 29080m | 6.4m/s | -45.1°C | 0.0% | 0hPa | 0V | 00:00:00 | 00:00:00 | 00:00:00 | |
| OM5KV | 2026-09-05 18:36:44 | 44.15872 | 23.28675 | 302° | 2km/h | 29035m | 6.3m/s | -45.2°C | 0.0% | 0hPa | 0V | 00:00:00 | 00:00:00 | 00:00:00 | |
| OM5KV | 2026-09-05 18:36:40 | 44.15876 | 23.28675 | 184° | 15km/h | 29006m | 6.4m/s | -45.3°C | 0.0% | 0hPa | 0V | 00:00:00 | 00:00:00 | 00:00:00 | |
| OM5KV | 2026-09-05 18:36:33 | 44.15907 | 23.28679 | 337° | 4km/h | 28960m | 6.5m/s | -45.3°C | 0.0% | 0hPa | 0V | 00:00:00 | 00:00:00 | 00:00:00 | |
| OM5KV | 2026-09-05 18:36:21 | 44.15893 | 23.28675 | 168° | 4km/h | 28880m | 6.5m/s | -45.2°C | 0.0% | 0hPa | 0V | 00:00:00 | 00:00:00 | 00:00:00 | |
| OM5KV | 2026-09-05 18:36:20 | 44.15892 | 23.28672 | 181° | 7km/h | 28873m | 6.5m/s | -45.3°C | 0.0% | 0hPa | 0V | 00:00:00 | 00:00:00 | 00:00:00 | |
| OM5KV | 2026-09-05 18:36:15 | 44.15903 | 23.28660 | 186° | 13km/h | 28840m | 6.1m/s | -45.6°C | 0.0% | 0hPa | 0V | 00:00:00 | 00:00:00 | 00:00:00 | |
| OM5KV | 2026-09-05 18:36:02 | 44.15941 | 23.28658 | 271° | 22km/h | 28756m | 6.2m/s | -45.9°C | 0.0% | 0hPa | 0V | 00:00:00 | 00:00:00 | 00:00:00 | |
| OM5KV | 2026-09-05 18:35:50 | 44.15948 | 23.28659 | 229° | 5km/h | 28672m | 5.9m/s | -46.0°C | 0.0% | 0hPa | 0V | 00:00:00 | 00:00:00 | 00:00:00 | |
| OM5KV | 2026-09-05 18:35:43 | 44.15955 | 23.28677 | 125° | 15km/h | 28624m | 5.7m/s | -46.0°C | 0.0% | 0hPa | 0V | 00:00:00 | 00:00:00 | 00:00:00 | |
| OM5KV | 2026-09-05 18:35:38 | 44.15970 | 23.28648 | 260° | 4km/h | 28592m | 5.8m/s | -46.1°C | 0.0% | 0hPa | 0V | 00:00:00 | 00:00:00 | 00:00:00 | |
| OM5KV | 2026-09-05 18:35:32 | 44.15971 | 23.28659 | 144° | 9km/h | 28559m | 5.8m/s | -46.1°C | 0.0% | 0hPa | 0V | 00:00:00 | 00:00:00 | 00:00:00 | |
| OM5KV | 2026-09-05 18:35:27 | 44.15984 | 23.28629 | 89° | 16km/h | 28534m | 6.2m/s | -46.0°C | 0.0% | 0hPa | 0V | 00:00:00 | 00:00:00 | 00:00:00 | |
| OM5KV | 2026-09-05 18:35:26 | 44.15985 | 23.28622 | 51° | 9km/h | 28528m | 6.1m/s | -46.1°C | 0.0% | 0hPa | 0V | 00:00:00 | 00:00:00 | 00:00:00 | |
| OM5KV | 2026-09-05 18:35:20 | 44.15988 | 23.28619 | 119° | 15km/h | 28493m | 6.1m/s | -46.2°C | 0.0% | 0hPa | 0V | 00:00:00 | 00:00:00 | 00:00:00 | |
| OM5KV | 2026-09-05 18:35:17 | 44.15995 | 23.28606 | 101° | 15km/h | 28474m | 6.2m/s | -46.3°C | 0.0% | 0hPa | 0V | 00:00:00 | 00:00:00 | 00:00:00 | |
| OM5KV | 2026-09-05 18:35:15 | 44.15996 | 23.28596 | 60° | 18km/h | 28461m | 5.9m/s | -46.3°C | 0.0% | 0hPa | 0V | 00:00:00 | 00:00:00 | 00:00:00 | |
| LZ4TU-5 | 2026-09-05 18:34:10 | 44.15988 | 23.28657 | 223° | 9km/h | 28053m | 6.5m/s | -46.4°C | 0.0% | 0hPa | 0V | 00:00:00 | 00:00:00 | 00:00:00 | |
| LZ4TU-5 | 2026-09-05 18:34:05 | 44.15995 | 23.28664 | 343° | 5km/h | 28020m | 6.5m/s | -46.4°C | 0.0% | 0hPa | 0V | 00:00:00 | 00:00:00 | 00:00:00 | |
| LZ4TU-5 | 2026-09-05 18:32:49 | 44.16096 | 23.28686 | 179° | 15km/h | 27521m | 6.3m/s | -47.2°C | 0.0% | 0hPa | 0V | 00:00:00 | 00:00:00 | 00:00:00 | |
| LZ4TU-5 | 2026-09-05 18:32:44 | 44.16113 | 23.28683 | 171° | 9km/h | 27488m | 6.1m/s | -47.3°C | 0.0% | 0hPa | 0V | 00:00:00 | 00:00:00 | 00:00:00 | |
| OM5KV | 2026-09-05 18:32:42 | 44.16119 | 23.28679 | 137° | 22km/h | 27473m | 6.1m/s | -47.4°C | 0.0% | 0hPa | 0V | 00:00:00 | 00:00:00 | 00:00:00 | |
| OM5KV | 2026-09-05 18:32:22 | 44.16195 | 23.28626 | 134° | 16km/h | 27346m | 6.8m/s | -47.4°C | 0.0% | 0hPa | 0V | 00:00:00 | 00:00:00 | 00:00:00 | |
| OM5KV | 2026-09-05 18:32:15 | 44.16217 | 23.28594 | 194° | 27km/h | 27298m | 6.7m/s | -47.6°C | 0.0% | 0hPa | 0V | 00:00:00 | 00:00:00 | 00:00:00 | |
| OM5KV | 2026-09-05 18:32:09 | 44.16247 | 23.28593 | 122° | 9km/h | 27257m | 6.7m/s | -47.9°C | 0.0% | 0hPa | 0V | 00:00:00 | 00:00:00 | 00:00:00 | |
| OM5KV | 2026-09-05 18:31:55 | 44.16303 | 23.28553 | 126° | 20km/h | 27161m | 5.9m/s | -48.1°C | 0.0% | 0hPa | 0V | 00:00:00 | 00:00:00 | 00:00:00 | |
| OM5KV | 2026-09-05 18:31:54 | 44.16306 | 23.28547 | 121° | 18km/h | 27154m | 5.9m/s | -48.1°C | 0.0% | 0hPa | 0V | 00:00:00 | 00:00:00 | 00:00:00 | |
| LZ4TU-5 | 2026-09-05 18:31:27 | 44.16423 | 23.28434 | 147° | 18km/h | 26979m | 6.5m/s | -48.3°C | 0.0% | 0hPa | 0V | 00:00:00 | 00:00:00 | 00:00:00 | |
| OM5KV | 2026-09-05 18:31:22 | 44.16436 | 23.28411 | 104° | 18km/h | 26949m | 6.6m/s | -48.3°C | 0.0% | 0hPa | 0V | 00:00:00 | 00:00:00 | 00:00:00 | |
| OM5KV | 2026-09-05 18:31:11 | 44.16451 | 23.28370 | 84° | 15km/h | 26875m | 7.0m/s | -48.1°C | 0.0% | 0hPa | 0V | 00:00:00 | 00:00:00 | 00:00:00 | |
| OM5KV | 2026-09-05 18:30:56 | 44.16466 | 23.28328 | 199° | 13km/h | 26768m | 5.9m/s | -47.9°C | 0.0% | 0hPa | 0V | 00:00:00 | 00:00:00 | 00:00:00 | |
| OM5KV | 2026-09-05 18:30:50 | 44.16492 | 23.28312 | 125° | 24km/h | 26727m | 5.6m/s | -48.1°C | 0.0% | 0hPa | 0V | 00:00:00 | 00:00:00 | 00:00:00 | |
| OM5KV | 2026-09-05 18:30:21 | 44.16524 | 23.28161 | 54° | 18km/h | 26551m | 5.5m/s | -49.4°C | 0.0% | 0hPa | 0V | 00:00:00 | 00:00:00 | 00:00:00 | |
| OM5KV | 2026-09-05 18:30:15 | 44.16508 | 23.28125 | 80° | 18km/h | 26519m | 6.1m/s | -50.1°C | 0.0% | 0hPa | 0V | 00:00:00 | 00:00:00 | 00:00:00 | |
| OM5KV | 2026-09-05 18:30:14 | 44.16507 | 23.28119 | 87° | 18km/h | 26512m | 6.0m/s | -50.1°C | 0.0% | 0hPa | 0V | 00:00:00 | 00:00:00 | 00:00:00 | |
| OM5KV | 2026-09-05 18:30:08 | 44.16503 | 23.28095 | 94° | 7km/h | 26476m | 6.4m/s | -50.4°C | 0.0% | 0hPa | 0V | 00:00:00 | 00:00:00 | 00:00:00 | |
| OM5KV | 2026-09-05 18:30:06 | 44.16503 | 23.28090 | 117° | 9km/h | 26463m | 6.5m/s | -50.7°C | 0.0% | 0hPa | 0V | 00:00:00 | 00:00:00 | 00:00:00 | |
| LZ4TU-5 | 2026-09-05 18:30:05 | 44.16504 | 23.28086 | 103° | 18km/h | 26455m | 6.0m/s | -50.8°C | 0.0% | 0hPa | 0V | 00:00:00 | 00:00:00 | 00:00:00 | |
| OM5KV | 2026-09-05 18:29:57 | 44.16497 | 23.28051 | 104° | 7km/h | 26405m | 6.1m/s | -51.4°C | 0.0% | 0hPa | 0V | 00:00:00 | 00:00:00 | 00:00:00 | |
| OM5KV | 2026-09-05 18:29:53 | 44.16504 | 23.28031 | 135° | 29km/h | 26380m | 6.4m/s | -51.7°C | 0.0% | 0hPa | 0V | 00:00:00 | 00:00:00 | 00:00:00 | |
| OM5KV | 2026-09-05 18:29:50 | 44.16502 | 23.28017 | 34° | 15km/h | 26361m | 6.2m/s | -51.9°C | 0.0% | 0hPa | 0V | 00:00:00 | 00:00:00 | 00:00:00 | |
| OM5KV | 2026-09-05 18:29:44 | 44.16486 | 23.28007 | 86° | 15km/h | 26321m | 6.0m/s | -51.9°C | 0.0% | 0hPa | 0V | 00:00:00 | 00:00:00 | 00:00:00 | |
| OM5KV | 2026-09-05 18:29:38 | 44.16477 | 23.27991 | 353° | 16km/h | 26285m | 6.0m/s | -52.0°C | 0.0% | 0hPa | 0V | 00:00:00 | 00:00:00 | 00:00:00 | |
| OM5KV | 2026-09-05 18:29:36 | 44.16471 | 23.27990 | 360° | 15km/h | 26271m | 5.6m/s | -52.1°C | 0.0% | 0hPa | 0V | 00:00:00 | 00:00:00 | 00:00:00 | |
| OM5KV | 2026-09-05 18:29:32 | 44.16464 | 23.27993 | 0° | 0km/h | 26248m | 5.8m/s | -52.3°C | 0.0% | 0hPa | 0V | 00:00:00 | 00:00:00 | 00:00:00 | |
| OM5KV | 2026-09-05 18:29:29 | 44.16463 | 23.27982 | 31° | 9km/h | 26231m | 6.2m/s | -52.4°C | 0.0% | 0hPa | 0V | 00:00:00 | 00:00:00 | 00:00:00 | |
| OM5KV | 2026-09-05 18:29:26 | 44.16452 | 23.27981 | 315° | 18km/h | 26213m | 6.1m/s | -52.4°C | 0.0% | 0hPa | 0V | 00:00:00 | 00:00:00 | 00:00:00 | |
| OM5KV | 2026-09-05 18:29:20 | 44.16446 | 23.28000 | 152° | 5km/h | 26174m | 6.2m/s | -52.4°C | 0.0% | 0hPa | 0V | 00:00:00 | 00:00:00 | 00:00:00 | |
| OM5KV | 2026-09-05 18:29:19 | 44.16448 | 23.27999 | 142° | 4km/h | 26167m | 6.1m/s | -52.4°C | 0.0% | 0hPa | 0V | 00:00:00 | 00:00:00 | 00:00:00 | |
| OM5KV | 2026-09-05 18:29:13 | 44.16443 | 23.27991 | 228° | 18km/h | 26129m | 6.7m/s | -52.5°C | 0.0% | 0hPa | 0V | 00:00:00 | 00:00:00 | 00:00:00 | |
| OM5KV | 2026-09-05 18:29:08 | 44.16465 | 23.28008 | 163° | 7km/h | 26094m | 6.2m/s | -52.3°C | 0.0% | 0hPa | 0V | 00:00:00 | 00:00:00 | 00:00:00 | |
| OM5KV | 2026-09-05 18:29:07 | 44.16467 | 23.28007 | 159° | 11km/h | 26091m | 6.9m/s | -52.2°C | 0.0% | 0hPa | 0V | 00:00:00 | 00:00:00 | 00:00:00 | |
| OM5KV | 2026-09-05 18:29:01 | 44.16468 | 23.28017 | 209° | 9km/h | 26048m | 7.0m/s | -52.1°C | 0.0% | 0hPa | 0V | 00:00:00 | 00:00:00 | 00:00:00 | |
| OM5KV | 2026-09-05 18:28:56 | 44.16493 | 23.28016 | 161° | 18km/h | 26010m | 8.0m/s | -52.2°C | 0.0% | 0hPa | 0V | 00:00:00 | 00:00:00 | 00:00:00 | |
| OM5KV | 2026-09-05 18:28:55 | 44.16496 | 23.28014 | 146° | 13km/h | 26001m | 7.5m/s | -52.3°C | 0.0% | 0hPa | 0V | 00:00:00 | 00:00:00 | 00:00:00 | |
| OM5KV | 2026-09-05 18:28:49 | 44.16510 | 23.28022 | 189° | 18km/h | 25960m | 5.8m/s | -52.4°C | 0.0% | 0hPa | 0V | 00:00:00 | 00:00:00 | 00:00:00 | |
| OM5KV | 2026-09-05 18:28:48 | 44.16515 | 23.28024 | 181° | 24km/h | 25954m | 5.9m/s | -52.5°C | 0.0% | 0hPa | 0V | 00:00:00 | 00:00:00 | 00:00:00 | |
| OM5KV | 2026-09-05 18:28:44 | 44.16536 | 23.28023 | 105° | 4km/h | 25926m | 5.7m/s | -52.4°C | 0.0% | 0hPa | 0V | 00:00:00 | 00:00:00 | 00:00:00 | |
| OM5KV | 2026-09-05 18:28:42 | 44.16536 | 23.28021 | 68° | 4km/h | 25913m | 5.7m/s | -52.3°C | 0.0% | 0hPa | 0V | 00:00:00 | 00:00:00 | 00:00:00 | |
| OM5KV | 2026-09-05 18:28:38 | 44.16539 | 23.28024 | 179° | 13km/h | 25889m | 5.9m/s | -52.3°C | 0.0% | 0hPa | 0V | 00:00:00 | 00:00:00 | 00:00:00 | |
| OM5KV | 2026-09-05 18:28:36 | 44.16547 | 23.28019 | 106° | 15km/h | 25874m | 5.7m/s | -52.3°C | 0.0% | 0hPa | 0V | 00:00:00 | 00:00:00 | 00:00:00 | |
| LZ4TU-5 | 2026-09-05 18:28:32 | 44.16549 | 23.27994 | 50° | 9km/h | 25847m | 5.5m/s | -52.4°C | 0.0% | 0hPa | 0V | 00:00:00 | 00:00:00 | 00:00:00 | |
| OM5KV | 2026-09-05 18:28:30 | 44.16546 | 23.27990 | 86° | 5km/h | 25836m | 5.6m/s | -52.4°C | 0.0% | 0hPa | 0V | 00:00:00 | 00:00:00 | 00:00:00 | |
| OM5KV | 2026-09-05 18:28:24 | 44.16553 | 23.27974 | 99° | 11km/h | 25798m | 5.5m/s | -52.7°C | 0.0% | 0hPa | 0V | 00:00:00 | 00:00:00 | 00:00:00 | |
| OM5KV | 2026-09-05 18:28:18 | 44.16542 | 23.27954 | 5° | 18km/h | 25761m | 5.6m/s | -52.7°C | 0.0% | 0hPa | 0V | 00:00:00 | 00:00:00 | 00:00:00 | |
| OM5KV | 2026-09-05 18:28:12 | 44.16526 | 23.27934 | 55° | 22km/h | 25726m | 6.0m/s | -52.7°C | 0.0% | 0hPa | 0V | 00:00:00 | 00:00:00 | 00:00:00 | |
| OM5KV | 2026-09-05 18:28:07 | 44.16511 | 23.27908 | 40° | 15km/h | 25695m | 6.2m/s | -52.6°C | 0.0% | 0hPa | 0V | 00:00:00 | 00:00:00 | 00:00:00 | |
| OM5KV | 2026-09-05 18:27:44 | 44.16410 | 23.27781 | 34° | 27km/h | 25554m | 6.1m/s | -52.8°C | 0.0% | 0hPa | 0V | 00:00:00 | 00:00:00 | 00:00:00 | |
| LZ4TU-5 | 2026-09-05 18:27:14 | 44.16211 | 23.27703 | 11° | 24km/h | 25358m | 5.5m/s | -52.6°C | 0.0% | 0hPa | 0V | 00:00:00 | 00:00:00 | 00:00:00 | |
| LZ4TU-5 | 2026-09-05 18:27:10 | 44.16188 | 23.27711 | 326° | 18km/h | 25335m | 5.4m/s | -52.5°C | 0.0% | 0hPa | 0V | 00:00:00 | 00:00:00 | 00:00:00 | |
| LZ4TU-5 | 2026-09-05 18:25:49 | 44.16186 | 23.27862 | 201° | 27km/h | 24814m | 6.0m/s | -52.8°C | 0.0% | 0hPa | 0V | 00:00:00 | 00:00:00 | 00:00:00 | |
| LZ4TU-5 | 2026-09-05 18:25:44 | 44.16192 | 23.27861 | 361° | 18km/h | 24785m | 4.9m/s | -52.8°C | 0.0% | 0hPa | 0V | 00:00:00 | 00:00:00 | 00:00:00 | |
| LZ4TU-5 | 2026-09-05 18:25:39 | 44.16190 | 23.27868 | 202° | 16km/h | 24755m | 5.5m/s | -52.7°C | 0% | 0hPa | 0V | 00:00:00 | 00:00:00 | 00:00:00 | |
| LZ4TU-5 | 2026-09-05 18:24:23 | 44.16603 | 23.27878 | 159° | 40km/h | 24249m | 5.3m/s | -52.3°C | 0.0% | 0hPa | 0V | 00:00:00 | 00:00:00 | 00:00:00 | |
| LZ4TU-5 | 2026-09-05 18:24:19 | 44.16630 | 23.27859 | 138° | 20km/h | 24223m | 6.3m/s | -52.3°C | 0.0% | 0hPa | 0V | 00:00:00 | 00:00:00 | 00:00:00 | |
| LZ4TU-5 | 2026-09-05 18:23:03 | 44.16823 | 23.27550 | 43° | 5km/h | 23709m | 6.6m/s | -52.7°C | 0.0% | 0hPa | 0V | 00:00:00 | 00:00:00 | 00:00:00 | |
| LZ4TU-5 | 2026-09-05 18:22:58 | 44.16813 | 23.27553 | 31° | 16km/h | 23678m | 6.6m/s | -52.7°C | 0.0% | 0hPa | 0V | 00:00:00 | 00:00:00 | 00:00:00 | |
| LZ4TU-5 | 2026-09-05 18:21:40 | 44.16733 | 23.27519 | 241° | 16km/h | 23181m | 5.3m/s | -51.4°C | 0.0% | 0hPa | 0V | 00:00:00 | 00:00:00 | 00:00:00 | |
| LZ4TU-5 | 2026-09-05 18:21:35 | 44.16735 | 23.27516 | 106° | 5km/h | 23150m | 4.5m/s | -51.5°C | 0% | 0hPa | 0V | 00:00:00 | 00:00:00 | 00:00:00 | |
| LZ4TU-5 | 2026-09-05 18:20:17 | 44.16540 | 23.27605 | 50° | 7km/h | 22710m | 5.1m/s | -54.5°C | 0.0% | 0hPa | 0V | 00:00:00 | 00:00:00 | 00:00:00 | |
| LZ4TU-5 | 2026-09-05 18:20:12 | 44.16533 | 23.27608 | 271° | 13km/h | 22681m | 6.0m/s | -54.7°C | 0.0% | 0hPa | 0V | 00:00:00 | 00:00:00 | 00:00:00 | |
| LZ4TU-5 | 2026-09-05 18:18:55 | 44.16525 | 23.27282 | 48° | 13km/h | 22189m | 7.2m/s | -54.2°C | 0.0% | 0hPa | 0V | 00:00:00 | 00:00:00 | 00:00:00 | |
| LZ4TU-5 | 2026-09-05 18:18:50 | 44.16522 | 23.27281 | 73° | 7km/h | 22156m | 6.2m/s | -54.1°C | 0.0% | 0hPa | 0V | 00:00:00 | 00:00:00 | 00:00:00 | |
| LZ4TU-5 | 2026-09-05 18:17:28 | 44.16539 | 23.27114 | 78° | 49km/h | 21640m | 4.9m/s | -56.7°C | 0.0% | 0hPa | 0V | 00:00:00 | 00:00:00 | 00:00:00 | |
| LZ4TU-5 | 2026-09-05 18:16:10 | 44.16467 | 23.26547 | 115° | 18km/h | 21206m | 5.1m/s | -57.4°C | 0.0% | 0hPa | 0V | 00:00:00 | 00:00:00 | 00:00:00 | |
| LZ4TU-5 | 2026-09-05 18:16:05 | 44.16463 | 23.26513 | 66° | 15km/h | 21177m | 5.4m/s | -57.3°C | 0.0% | 0hPa | 0V | 00:00:00 | 00:00:00 | 00:00:00 | |
| LZ4TU-5 | 2026-09-05 18:14:47 | 44.16479 | 23.26052 | 213° | 13km/h | 20706m | 5.9m/s | -56.4°C | 0.0% | 0hPa | 0V | 00:00:00 | 00:00:00 | 00:00:00 | |
| LZ4TU-5 | 2026-09-05 18:14:43 | 44.16490 | 23.26050 | 113° | 13km/h | 20684m | 5.3m/s | -56.3°C | 0.0% | 0hPa | 0V | 00:00:00 | 00:00:00 | 00:00:00 | |
| LZ4TU-5 | 2026-09-05 18:13:25 | 44.16743 | 23.25742 | 136° | 31km/h | 20195m | 4.0m/s | -56.5°C | 0.0% | 0hPa | 0V | 00:00:00 | 00:00:00 | 00:00:00 | |
| LZ4TU-5 | 2026-09-05 18:13:20 | 44.16762 | 23.25717 | 139° | 24km/h | 20163m | 6.2m/s | -56.3°C | 0.0% | 0hPa | 0V | 00:00:00 | 00:00:00 | 00:00:00 | |
| LZ4TU-5 | 2026-09-05 18:12:02 | 44.16942 | 23.25137 | 142° | 27km/h | 19724m | 6.4m/s | -55.2°C | 0.0% | 0hPa | 0V | 00:00:00 | 00:00:00 | 00:00:00 | |
| LZ4TU-5 | 2026-09-05 18:11:57 | 44.16964 | 23.25120 | 138° | 18km/h | 19697m | 5.5m/s | -55.4°C | 0.0% | 0hPa | 0V | 00:00:00 | 00:00:00 | 00:00:00 | |
| LZ4TU-5 | 2026-09-05 18:10:39 | 44.17163 | 23.24367 | 107° | 40km/h | 19253m | 7.1m/s | -56.6°C | 0.0% | 0hPa | 0V | 00:00:00 | 00:00:00 | 00:00:00 | |
| LZ4TU-5 | 2026-09-05 18:10:35 | 44.17183 | 23.24308 | 129° | 44km/h | 19230m | 6.6m/s | -56.6°C | 0.0% | 0hPa | 0V | 00:00:00 | 00:00:00 | 00:00:00 | |
| LZ4TU-5 | 2026-09-05 18:09:17 | 44.17295 | 23.23239 | 80° | 31km/h | 18798m | 5.9m/s | -57.9°C | 0.1% | 0hPa | 0V | 00:00:00 | 00:00:00 | 00:00:00 | |
| LZ4TU-5 | 2026-09-05 18:09:12 | 44.17292 | 23.23180 | 100° | 31km/h | 18770m | 5.4m/s | -57.9°C | 0.1% | 0hPa | 0V | 00:00:00 | 00:00:00 | 00:00:00 | |
| LZ4TU-5 | 2026-09-05 18:07:55 | 44.17253 | 23.21968 | 96° | 37km/h | 18347m | 5.2m/s | -59.4°C | 0.3% | 0hPa | 0V | 00:00:00 | 00:00:00 | 00:00:00 | |
| LZ4TU-5 | 2026-09-05 18:07:49 | 44.17258 | 23.21879 | 76° | 66km/h | 18317m | 5.6m/s | -59.6°C | 0.4% | 0hPa | 0V | 00:00:00 | 00:00:00 | 00:00:00 | |
| LZ4TU-5 | 2026-09-05 18:06:36 | 44.16951 | 23.20546 | 55° | 49km/h | 17884m | 4.8m/s | -58.0°C | 1.0% | 0hPa | 0V | 00:00:00 | 00:00:00 | 00:00:00 | |
| LZ4TU-5 | 2026-09-05 18:06:32 | 44.16921 | 23.20480 | 61° | 55km/h | 17864m | 3.2m/s | -58.0°C | 0% | 0hPa | 0V | 00:00:00 | 00:00:00 | 00:00:00 | |
| LZ4TU-5 | 2026-09-05 18:05:18 | 44.16706 | 23.19483 | 94° | 35km/h | 17414m | 6.1m/s | -59.7°C | 1.7% | 0hPa | 0V | 00:00:00 | 00:00:00 | 00:00:00 | |
| LZ4TU-5 | 2026-09-05 18:05:14 | 44.16714 | 23.19436 | 110° | 37km/h | 17388m | 7.3m/s | -59.5°C | 1.8% | 0hPa | 0V | 00:00:00 | 00:00:00 | 00:00:00 | |
| LZ4TU-5 | 2026-09-05 18:03:53 | 44.16873 | 23.17892 | 81° | 68km/h | 16888m | 7.7m/s | -58.3°C | 2.6% | 0hPa | 0V | 00:00:00 | 00:00:00 | 00:00:00 | |
| LZ4TU-5 | 2026-09-05 18:03:48 | 44.16858 | 23.17788 | 85° | 62km/h | 16860m | 4.7m/s | -58.5°C | 2.7% | 0hPa | 0V | 00:00:00 | 00:00:00 | 00:00:00 | |
| LZ4TU-5 | 2026-09-05 18:02:34 | 44.16696 | 23.16218 | 96° | 49km/h | 16446m | 4.0m/s | -60.3°C | 3.9% | 0hPa | 0V | 00:00:00 | 00:00:00 | 00:00:00 | |
| LZ4TU-5 | 2026-09-05 18:02:29 | 44.16676 | 23.16123 | 73° | 69km/h | 16418m | 4.3m/s | -60.1°C | 0% | 0hPa | 0V | 00:00:00 | 00:00:00 | 00:00:00 | |
| LZ4TU-5 | 2026-09-05 18:01:14 | 44.16621 | 23.14669 | 105° | 78km/h | 16010m | 3.4m/s | -60.3°C | 4.5% | 0hPa | 0V | 00:00:00 | 00:00:00 | 00:00:00 | |
| LZ4TU-5 | 2026-09-05 18:01:10 | 44.16631 | 23.14598 | 91° | 33km/h | 15986m | 5.6m/s | -60.1°C | 4.5% | 0hPa | 0V | 00:00:00 | 00:00:00 | 00:00:00 | |
| LZ4TU-5 | 2026-09-05 17:59:57 | 44.16661 | 23.13098 | 99° | 68km/h | 15542m | 4.6m/s | -60.4°C | 6.1% | 0hPa | 0V | 00:00:00 | 00:00:00 | 00:00:00 | |
| LZ4TU-5 | 2026-09-05 17:59:52 | 44.16657 | 23.12975 | 87° | 75km/h | 15512m | 4.9m/s | -60.3°C | 6.3% | 0hPa | 0V | 00:00:00 | 00:00:00 | 00:00:00 | |
| LZ4TU-5 | 2026-09-05 17:58:38 | 44.16740 | 23.11051 | 91° | 86km/h | 15117m | 5.5m/s | -60.0°C | 8.1% | 0hPa | 0V | 00:00:00 | 00:00:00 | 00:00:00 | |
| LZ4TU-5 | 2026-09-05 17:58:34 | 44.16745 | 23.10942 | 99° | 80km/h | 15098m | 6.3m/s | -59.9°C | 8.2% | 0hPa | 0V | 00:00:00 | 00:00:00 | 00:00:00 | |
| LZ4TU-5 | 2026-09-05 17:57:12 | 44.16714 | 23.08930 | 82° | 62km/h | 14709m | 4.0m/s | -60.3°C | 13.6% | 0hPa | 0V | 00:00:00 | 00:00:00 | 00:00:00 | |
| LZ4TU-5 | 2026-09-05 17:57:07 | 44.16695 | 23.08809 | 81° | 82km/h | 14681m | 7.6m/s | -60.3°C | 14.1% | 0hPa | 0V | 00:00:00 | 00:00:00 | 00:00:00 | |
| LZ4TU-5 | 2026-09-05 17:55:44 | 44.16526 | 23.06578 | 91° | 77km/h | 14206m | 5.6m/s | -63.3°C | 23.2% | 0hPa | 0V | 00:00:00 | 00:00:00 | 00:00:00 | |
| LZ4TU-5 | 2026-09-05 17:55:40 | 44.16525 | 23.06474 | 94° | 77km/h | 14182m | 4.2m/s | -63.5°C | 23.5% | 0hPa | 0V | 00:00:00 | 00:00:00 | 00:00:00 | |
| LZ4TU-5 | 2026-09-05 17:54:16 | 44.16834 | 23.03766 | 112° | 119km/h | 13658m | 7.6m/s | -62.4°C | 28.5% | 0hPa | 0V | 00:00:00 | 00:00:00 | 00:00:00 | |
| LZ4TU-5 | 2026-09-05 17:54:11 | 44.16865 | 23.03587 | 110° | 84km/h | 13611m | 9.4m/s | -62.4°C | 28.9% | 0hPa | 0V | 00:00:00 | 00:00:00 | 00:00:00 | |
| LZ4TU-5 | 2026-09-05 17:52:47 | 44.17376 | 23.00615 | 98° | 108km/h | 13091m | 7.1m/s | -61.2°C | 31.8% | 0hPa | 0V | 00:00:00 | 00:00:00 | 00:00:00 | |
| LZ4TU-5 | 2026-09-05 17:52:42 | 44.17407 | 23.00438 | 98° | 91km/h | 13057m | 7.7m/s | -61.1°C | 32.0% | 0hPa | 0V | 00:00:00 | 00:00:00 | 00:00:00 | |
| LZ4TU-5 | 2026-09-05 17:51:17 | 44.17560 | 22.97534 | 92° | 89km/h | 12540m | 4.9m/s | -58.0°C | 35.2% | 0hPa | 0V | 00:00:00 | 00:00:00 | 00:00:00 | |
| LZ4TU-5 | 2026-09-05 17:51:12 | 44.17564 | 22.97364 | 96° | 100km/h | 12508m | 5.2m/s | -57.8°C | 35.6% | 0hPa | 0V | 00:00:00 | 00:00:00 | 00:00:00 | |
| LZ4TU-5 | 2026-09-05 17:51:07 | 44.17581 | 22.97203 | 90° | 89km/h | 12481m | 4.7m/s | -57.7°C | 36.1% | 0hPa | 0V | 00:00:00 | 00:00:00 | 00:00:00 | |
| LZ4TU-5 | 2026-09-05 17:49:44 | 44.17874 | 22.94419 | 108° | 113km/h | 12018m | 5.6m/s | -56.2°C | 55.0% | 0hPa | 0V | 00:00:00 | 00:00:00 | 00:00:00 | |
| LZ4TU-5 | 2026-09-05 17:49:40 | 44.17899 | 22.94270 | 101° | 104km/h | 11996m | 6.4m/s | -56.1°C | 0% | 0hPa | 0V | 00:00:00 | 00:00:00 | 00:00:00 | |
| LZ4TU-5 | 2026-09-05 17:48:17 | 44.18203 | 22.91485 | 93° | 86km/h | 11485m | 5.2m/s | -52.2°C | 43.5% | 0hPa | 0V | 00:00:00 | 00:00:00 | 00:00:00 | |
| LZ4TU-5 | 2026-09-05 17:48:12 | 44.18219 | 22.91346 | 101° | 100km/h | 11459m | 6.3m/s | -52.0°C | 41.4% | 0hPa | 0V | 00:00:00 | 00:00:00 | 00:00:00 | |
| LZ4TU-5 | 2026-09-05 17:46:49 | 44.18495 | 22.88769 | 103° | 93km/h | 10923m | 6.4m/s | -47.9°C | 36.3% | 0hPa | 0V | 00:00:00 | 00:00:00 | 00:00:00 | |
| LZ4TU-5 | 2026-09-05 17:46:44 | 44.18518 | 22.88656 | 108° | 75km/h | 10896m | 7.5m/s | -47.7°C | 36.4% | 0hPa | 0V | 00:00:00 | 00:00:00 | 00:00:00 | |
| LZ4TU-5 | 2026-09-05 17:45:08 | 44.18849 | 22.86024 | 95° | 68km/h | 10300m | 7.1m/s | -42.1°C | 29.9% | 0hPa | 0V | 00:00:00 | 00:00:00 | 00:00:00 | |
| LZ4TU-5 | 2026-09-05 17:45:04 | 44.18862 | 22.85921 | 101° | 97km/h | 10279m | 6.2m/s | -41.8°C | 30.6% | 0hPa | 0V | 00:00:00 | 00:00:00 | 00:00:00 | |
| LZ4TU-5 | 2026-09-05 17:43:42 | 44.18954 | 22.83744 | 90° | 69km/h | 9774m | 7.8m/s | -37.9°C | 43.4% | 0hPa | 0V | 00:00:00 | 00:00:00 | 00:00:00 | |
| LZ4TU-5 | 2026-09-05 17:43:37 | 44.18946 | 22.83627 | 83° | 57km/h | 9742m | 7.1m/s | -37.7°C | 42.3% | 0hPa | 0V | 00:00:00 | 00:00:00 | 00:00:00 | |
| LZ4TU-5 | 2026-09-05 17:42:13 | 44.19097 | 22.81479 | 99° | 53km/h | 9244m | 3.8m/s | -33.6°C | 12.4% | 0hPa | 0V | 00:00:00 | 00:00:00 | 00:00:00 | |
| LZ4TU-5 | 2026-09-05 17:42:08 | 44.19116 | 22.81339 | 100° | 110km/h | 9214m | 6.6m/s | -33.5°C | 12.3% | 0hPa | 0V | 00:00:00 | 00:00:00 | 00:00:00 | |
| LZ4TU-5 | 2026-09-05 17:40:46 | 44.19527 | 22.79149 | 100° | 95km/h | 8725m | 3.6m/s | -30.2°C | 12.6% | 0hPa | 0V | 00:00:00 | 00:00:00 | 00:00:00 | |
| LZ4TU-5 | 2026-09-05 17:40:41 | 44.19569 | 22.79027 | 124° | 68km/h | 8697m | 4.7m/s | -30.2°C | 13.2% | 0hPa | 0V | 00:00:00 | 00:00:00 | 00:00:00 | |
| LZ4TU-5 | 2026-09-05 17:40:36 | 44.19605 | 22.78882 | 109° | 86km/h | 8664m | 5.0m/s | -29.9°C | 12.3% | 0hPa | 0V | 00:00:00 | 00:00:00 | 00:00:00 | |
| LZ4TU-5 | 2026-09-05 17:40:31 | 44.19644 | 22.78782 | 118° | 68km/h | 8637m | 3.6m/s | -29.7°C | 11.9% | 0hPa | 0V | 00:00:00 | 00:00:00 | 00:00:00 | |
| LZ4TU-5 | 2026-09-05 17:39:19 | 44.20081 | 22.77080 | 103° | 71km/h | 8170m | 7.0m/s | -26.3°C | 13.7% | 0hPa | 0V | 00:00:00 | 00:00:00 | 00:00:00 | |
| LZ4TU-5 | 2026-09-05 17:39:15 | 44.20087 | 22.77000 | 101° | 40km/h | 8146m | 5.1m/s | -26.1°C | 12.9% | 0hPa | 0V | 00:00:00 | 00:00:00 | 00:00:00 | |
| LZ4TU-5 | 2026-09-05 17:38:00 | 44.20495 | 22.75280 | 109° | 66km/h | 7675m | 7.3m/s | -22.4°C | 12.2% | 0hPa | 0V | 00:00:00 | 00:00:00 | 00:00:00 | |
| LZ4TU-5 | 2026-09-05 17:37:55 | 44.20509 | 22.75174 | 104° | 71km/h | 7645m | 5.1m/s | -22.1°C | 12.3% | 0hPa | 0V | 00:00:00 | 00:00:00 | 00:00:00 | |
| LZ4TU-5 | 2026-09-05 17:36:20 | 44.20630 | 22.72788 | 85° | 53km/h | 7131m | 3.2m/s | -18.7°C | 20.5% | 0hPa | 0V | 00:00:00 | 00:00:00 | 00:00:00 | |
| LZ4TU-5 | 2026-09-05 17:36:15 | 44.20646 | 22.72696 | 103° | 86km/h | 7115m | 3.8m/s | -18.5°C | 19.3% | 0hPa | 0V | 00:00:00 | 00:00:00 | 00:00:00 | |
| LZ4TU-5 | 2026-09-05 17:35:05 | 44.20696 | 22.70941 | 94° | 77km/h | 6738m | 4.2m/s | -16.1°C | 16.6% | 0hPa | 0V | 00:00:00 | 00:00:00 | 00:00:00 | |
| LZ4TU-5 | 2026-09-05 17:35:00 | 44.20703 | 22.70810 | 89° | 78km/h | 6715m | 4.3m/s | -16.1°C | 0% | 0hPa | 0V | 00:00:00 | 00:00:00 | 00:00:00 | |
| LZ4TU-5 | 2026-09-05 17:33:19 | 44.21028 | 22.68597 | 96° | 78km/h | 6166m | 7.2m/s | -12.9°C | 33.4% | 0hPa | 0V | 00:00:00 | 00:00:00 | 00:00:00 | |
| LZ4TU-5 | 2026-09-05 17:33:14 | 44.21049 | 22.68478 | 116° | 47km/h | 6136m | 6.6m/s | -12.6°C | 32.3% | 0hPa | 0V | 00:00:00 | 00:00:00 | 00:00:00 | |
| LZ4TU-5 | 2026-09-05 17:32:10 | 44.21298 | 22.67055 | 124° | 55km/h | 5783m | 5.4m/s | -9.6°C | 31.1% | 0hPa | 0V | 00:00:00 | 00:00:00 | 00:00:00 | |
| LZ4TU-5 | 2026-09-05 17:32:05 | 44.21306 | 22.66958 | 95° | 75km/h | 5755m | 7.6m/s | -9.5°C | 31.6% | 0hPa | 0V | 00:00:00 | 00:00:00 | 00:00:00 | |
| LZ4TU-5 | 2026-09-05 17:31:03 | 44.21419 | 22.65712 | 113° | 53km/h | 5388m | 8.9m/s | -8.4°C | 47.5% | 0hPa | 0V | 00:00:00 | 00:00:00 | 00:00:00 | |
| LZ4TU-5 | 2026-09-05 17:30:58 | 44.21429 | 22.65636 | 81° | 46km/h | 5359m | 4.8m/s | -8.2°C | 48.7% | 0hPa | 0V | 00:00:00 | 00:00:00 | 00:00:00 | |
| LZ4TU-5 | 2026-09-05 17:29:56 | 44.21605 | 22.64544 | 96° | 38km/h | 4988m | 6.9m/s | -5.3°C | 45.3% | 0hPa | 0V | 00:00:00 | 00:00:00 | 00:00:00 | |
| LZ4TU-5 | 2026-09-05 17:29:51 | 44.21615 | 22.64468 | 101° | 73km/h | 4957m | 7.1m/s | -5.1°C | 47.0% | 0hPa | 0V | 00:00:00 | 00:00:00 | 00:00:00 | |
| LZ4TU-5 | 2026-09-05 17:28:49 | 44.21761 | 22.63293 | 78° | 60km/h | 4607m | 3.7m/s | -2.5°C | 47.6% | 0hPa | 0V | 00:00:00 | 00:00:00 | 00:00:00 | |
| LZ4TU-5 | 2026-09-05 17:28:44 | 44.21766 | 22.63185 | 114° | 46km/h | 4578m | 7.0m/s | -2.4°C | 49.0% | 0hPa | 0V | 00:00:00 | 00:00:00 | 00:00:00 | |
| LZ4TU-5 | 2026-09-05 17:27:42 | 44.21812 | 22.61998 | 107° | 35km/h | 4203m | 6.1m/s | 1.0°C | 45.3% | 0hPa | 0V | 00:00:00 | 00:00:00 | 00:00:00 | |
| LZ4TU-5 | 2026-09-05 17:27:37 | 44.21830 | 22.61898 | 97° | 71km/h | 4177m | 5.9m/s | 1.3°C | 44.8% | 0hPa | 0V | 00:00:00 | 00:00:00 | 00:00:00 | |
| LZ4TU-5 | 2026-09-05 17:26:35 | 44.21831 | 22.60737 | 93° | 60km/h | 3798m | 6.5m/s | 4.7°C | 40.1% | 0hPa | 0V | 00:00:00 | 00:00:00 | 00:00:00 | |
| LZ4TU-5 | 2026-09-05 17:26:30 | 44.21844 | 22.60632 | 92° | 62km/h | 3765m | 7.0m/s | 5.0°C | 0% | 0hPa | 0V | 00:00:00 | 00:00:00 | 00:00:00 | |
| LZ4TU-5 | 2026-09-05 17:25:28 | 44.22046 | 22.59407 | 119° | 46km/h | 3381m | 5.6m/s | 7.6°C | 32.7% | 0hPa | 0V | 00:00:00 | 00:00:00 | 00:00:00 | |
| LZ4TU-5 | 2026-09-05 17:25:23 | 44.22073 | 22.59307 | 110° | 75km/h | 3352m | 4.4m/s | 7.7°C | 31.8% | 0hPa | 0V | 00:00:00 | 00:00:00 | 00:00:00 | |
| LZ4TU-5 | 2026-09-05 17:23:42 | 44.22453 | 22.57702 | 73° | 29km/h | 2766m | 6.9m/s | 10.1°C | 48.0% | 0hPa | 0V | 00:00:00 | 00:00:00 | 00:00:00 | |
| LZ4TU-5 | 2026-09-05 17:23:37 | 44.22439 | 22.57667 | 103° | 26km/h | 2739m | 6.0m/s | 10.4°C | 47.0% | 0hPa | 0V | 00:00:00 | 00:00:00 | 00:00:00 | |
| LZ4TU-5 | 2026-09-05 17:22:42 | 44.22375 | 22.57331 | 86° | 16km/h | 2433m | 5.6m/s | 13.2°C | 44.2% | 0hPa | 0V | 00:00:00 | 00:00:00 | 00:00:00 | |
| LZ4TU-5 | 2026-09-05 17:22:37 | 44.22369 | 22.57320 | 93° | 18km/h | 2398m | 6.8m/s | 13.5°C | 0% | 0hPa | 0V | 00:00:00 | 00:00:00 | 00:00:00 | |
| LZ4TU-5 | 2026-09-05 17:21:42 | 44.22350 | 22.56896 | 90° | 16km/h | 2120m | 5.1m/s | 15.6°C | 45.2% | 0hPa | 0V | 00:00:00 | 00:00:00 | 00:00:00 | |
| LZ4TU-5 | 2026-09-05 17:21:37 | 44.22336 | 22.56841 | 82° | 35km/h | 2093m | 6.2m/s | 15.8°C | 45.0% | 0hPa | 0V | 00:00:00 | 00:00:00 | 00:00:00 | |
| LZ4TU-5 | 2026-09-05 17:20:43 | 44.22370 | 22.56370 | 65° | 24km/h | 1828m | 3.9m/s | 18.3°C | 40.9% | 0hPa | 0V | 00:00:00 | 00:00:00 | 00:00:00 | |
| LZ4TU-5 | 2026-09-05 17:20:38 | 44.22375 | 22.56323 | 121° | 27km/h | 1803m | 5.6m/s | 18.5°C | 40.5% | 0hPa | 0V | 00:00:00 | 00:00:00 | 00:00:00 | |
| LZ4TU-5 | 2026-09-05 17:19:43 | 44.22509 | 22.55856 | 140° | 26km/h | 1503m | 5.3m/s | 21.3°C | 37.1% | 0hPa | 0V | 00:00:00 | 00:00:00 | 00:00:00 | |
| LZ4TU-5 | 2026-09-05 17:19:39 | 44.22523 | 22.55823 | 112° | 42km/h | 1480m | 5.6m/s | 21.5°C | 0% | 0hPa | 0V | 00:00:00 | 00:00:00 | 00:00:00 | |
| LZ4TU-5 | 2026-09-05 17:19:34 | 44.22532 | 22.55765 | 87° | 22km/h | 1454m | 5.4m/s | 21.7°C | 36.5% | 0hPa | 0V | 00:00:00 | 00:00:00 | 00:00:00 |